Time,TemperatureF,DewpointF,PressureIn,WindDirection,WindDirectionDegrees,WindSpeedMPH,WindSpeedGustMPH,Humidity,HourlyPrecipIn,Conditions,Clouds,dailyrainin,SolarRadiationWatts/m^2,SoftwareType,DateUTC
2013-06-29 00:02:00,62.0,61.0,-100.00,East,89,0.0,2.0,95,0.00,,,0.00,0.000000,,2013-06-29 07:02:00,
2013-06-29 00:12:00,62.0,61.0,-100.00,East,89,0.0,2.0,95,0.00,,,0.00,0.000000,,2013-06-29 07:12:00,
2013-06-29 00:22:00,62.0,61.0,-100.00,East,89,0.0,2.0,95,0.00,,,0.00,0.000000,,2013-06-29 07:22:00,
2013-06-29 00:33:00,61.0,60.0,-100.00,ESE,113,1.0,3.0,96,0.00,,,0.00,0.000000,,2013-06-29 07:33:00,
2013-06-29 01:01:00,61.0,60.0,-100.00,ESE,113,1.0,3.0,96,0.00,,,0.00,0.000000,,2013-06-29 08:01:00,
2013-06-29 01:11:00,61.0,60.0,-100.00,ESE,113,1.0,3.0,96,0.00,,,0.00,0.000000,,2013-06-29 08:11:00,
2013-06-29 01:21:00,61.0,60.0,-100.00,ESE,113,1.0,3.0,96,0.00,,,0.00,0.000000,,2013-06-29 08:21:00,
2013-06-29 01:33:00,61.0,60.0,-100.00,ENE,68,1.0,3.0,97,0.01,,,0.01,0.000000,,2013-06-29 08:33:00,
2013-06-29 01:52:00,61.0,60.0,-100.00,ENE,68,1.0,3.0,97,0.01,,,0.01,0.000000,,2013-06-29 08:52:00,
2013-06-29 02:02:00,61.0,60.0,-100.00,ENE,68,1.0,3.0,97,0.01,,,0.01,0.000000,,2013-06-29 09:02:00,
2013-06-29 02:12:00,61.0,60.0,-100.00,ENE,68,1.0,3.0,97,0.01,,,0.01,0.000000,,2013-06-29 09:12:00,
2013-06-29 02:22:00,61.0,60.0,-100.00,ENE,68,1.0,3.0,97,0.01,,,0.01,0.000000,,2013-06-29 09:22:00,
2013-06-29 02:33:00,61.0,60.0,-100.00,West,263,0.0,4.0,98,0.00,,,0.01,0.000000,,2013-06-29 09:33:00,
2013-06-29 02:53:00,61.0,60.0,-100.00,West,263,0.0,4.0,98,0.00,,,0.01,0.000000,,2013-06-29 09:53:00,
2013-06-29 03:01:00,61.0,60.0,-100.00,West,263,0.0,4.0,98,0.00,,,0.01,0.000000,,2013-06-29 10:01:00,
2013-06-29 03:11:00,61.0,60.0,-100.00,West,263,0.0,4.0,98,0.00,,,0.01,0.000000,,2013-06-29 10:11:00,
2013-06-29 03:22:00,61.0,60.0,-100.00,West,263,0.0,4.0,98,0.00,,,0.01,0.000000,,2013-06-29 10:22:00,
2013-06-29 03:33:00,59.0,59.0,-100.00,East,90,0.0,2.0,99,0.00,,,0.01,0.000000,,2013-06-29 10:33:00,
2013-06-29 03:53:00,59.0,59.0,-100.00,East,90,0.0,2.0,99,0.00,,,0.01,0.000000,,2013-06-29 10:53:00,
2013-06-29 04:01:00,59.0,59.0,-100.00,East,90,0.0,2.0,99,0.00,,,0.01,0.000000,,2013-06-29 11:01:00,
2013-06-29 04:11:00,59.0,59.0,-100.00,East,90,0.0,2.0,99,0.00,,,0.01,0.000000,,2013-06-29 11:11:00,
2013-06-29 04:23:00,59.0,59.0,-100.00,East,90,0.0,2.0,99,0.00,,,0.01,0.000000,,2013-06-29 11:23:00,
2013-06-29 04:33:00,58.0,58.0,-100.00,SE,144,0.0,2.0,99,0.00,,,0.01,0.000000,,2013-06-29 11:33:00,
2013-06-29 04:53:00,58.0,58.0,-100.00,SE,144,0.0,2.0,99,0.00,,,0.01,0.000000,,2013-06-29 11:53:00,
2013-06-29 05:02:00,58.0,58.0,-100.00,SE,144,0.0,2.0,99,0.00,,,0.01,0.000000,,2013-06-29 12:02:00,
2013-06-29 05:11:00,58.0,58.0,-100.00,SE,144,0.0,2.0,99,0.00,,,0.01,0.000000,,2013-06-29 12:11:00,
2013-06-29 05:22:00,58.0,58.0,-100.00,SE,144,0.0,2.0,99,0.00,,,0.01,0.000000,,2013-06-29 12:22:00,
2013-06-29 05:33:00,57.0,57.0,-100.00,NE,53,0.0,2.0,99,0.00,,,0.01,1.000000,,2013-06-29 12:33:00,
2013-06-29 05:53:00,57.0,57.0,-100.00,NE,53,0.0,2.0,99,0.00,,,0.01,1.000000,,2013-06-29 12:53:00,
2013-06-29 06:02:00,57.0,57.0,-100.00,NE,53,0.0,2.0,99,0.00,,,0.01,1.000000,,2013-06-29 13:02:00,
2013-06-29 06:11:00,57.0,57.0,-100.00,NE,53,0.0,2.0,99,0.00,,,0.01,1.000000,,2013-06-29 13:11:00,
2013-06-29 06:23:00,57.0,57.0,-100.00,NE,53,0.0,2.0,99,0.00,,,0.01,1.000000,,2013-06-29 13:23:00,
2013-06-29 06:33:00,57.0,57.0,-100.00,NW,316,0.0,2.0,99,0.00,,,0.01,28.000000,,2013-06-29 13:33:00,
2013-06-29 07:02:00,57.0,57.0,-100.00,NW,316,0.0,2.0,99,0.00,,,0.01,28.000000,,2013-06-29 14:02:00,
2013-06-29 07:12:00,57.0,57.0,-100.00,NW,316,0.0,2.0,99,0.00,,,0.01,28.000000,,2013-06-29 14:12:00,
2013-06-29 07:23:00,57.0,57.0,-100.00,NW,316,0.0,2.0,99,0.00,,,0.01,28.000000,,2013-06-29 14:23:00,
2013-06-29 07:33:00,60.0,60.0,-100.00,NNE,24,0.0,2.0,99,0.00,,,0.01,95.000000,,2013-06-29 14:33:00,
2013-06-29 08:01:00,60.0,60.0,-100.00,NNE,24,0.0,2.0,99,0.00,,,0.01,95.000000,,2013-06-29 15:01:00,
2013-06-29 08:11:00,60.0,60.0,-100.00,NNE,24,0.0,2.0,99,0.00,,,0.01,95.000000,,2013-06-29 15:11:00,
2013-06-29 08:22:00,60.0,60.0,-100.00,NNE,24,0.0,2.0,99,0.00,,,0.01,95.000000,,2013-06-29 15:22:00,
2013-06-29 08:33:00,68.0,60.0,-100.00,WSW,249,1.0,3.0,76,0.00,,,0.01,328.000000,,2013-06-29 15:33:00,
2013-06-29 09:01:00,68.0,60.0,-100.00,WSW,249,1.0,3.0,76,0.00,,,0.01,328.000000,,2013-06-29 16:01:00,
2013-06-29 09:12:00,68.0,60.0,-100.00,WSW,249,1.0,3.0,76,0.00,,,0.01,328.000000,,2013-06-29 16:12:00,
2013-06-29 09:22:00,68.0,60.0,-100.00,WSW,249,1.0,3.0,76,0.00,,,0.01,328.000000,,2013-06-29 16:22:00,
2013-06-29 09:33:00,70.0,58.0,-100.00,South,187,2.0,5.0,66,0.00,,,0.01,442.000000,,2013-06-29 16:33:00,
2013-06-29 09:53:00,70.0,58.0,-100.00,South,187,2.0,5.0,66,0.00,,,0.01,442.000000,,2013-06-29 16:53:00,
2013-06-29 10:01:00,70.0,58.0,-100.00,South,187,2.0,5.0,66,0.00,,,0.01,442.000000,,2013-06-29 17:01:00,
2013-06-29 10:12:00,70.0,58.0,-100.00,South,187,2.0,5.0,66,0.00,,,0.01,442.000000,,2013-06-29 17:12:00,
2013-06-29 10:22:00,70.0,58.0,-100.00,South,187,2.0,5.0,66,0.00,,,0.01,442.000000,,2013-06-29 17:22:00,
2013-06-29 10:33:00,71.0,62.0,-100.00,West,272,2.0,8.0,74,0.00,,,0.01,630.000000,,2013-06-29 17:33:00,
2013-06-29 10:53:00,71.0,62.0,-100.00,West,272,2.0,8.0,74,0.00,,,0.01,630.000000,,2013-06-29 17:53:00,
2013-06-29 11:01:00,71.0,62.0,-100.00,West,272,2.0,8.0,74,0.00,,,0.01,630.000000,,2013-06-29 18:01:00,
2013-06-29 11:11:00,71.0,62.0,-100.00,West,272,2.0,8.0,74,0.00,,,0.01,630.000000,,2013-06-29 18:11:00,
2013-06-29 11:22:00,71.0,62.0,-100.00,West,272,2.0,8.0,74,0.00,,,0.01,630.000000,,2013-06-29 18:22:00,
2013-06-29 11:33:00,70.0,61.0,-100.00,West,262,4.0,10.0,72,0.00,,,0.01,680.000000,,2013-06-29 18:33:00,
2013-06-29 12:01:00,70.0,61.0,-100.00,West,262,4.0,10.0,72,0.00,,,0.01,680.000000,,2013-06-29 19:01:00,
2013-06-29 12:12:00,70.0,61.0,-100.00,West,262,4.0,10.0,72,0.00,,,0.01,680.000000,,2013-06-29 19:12:00,
2013-06-29 12:22:00,70.0,61.0,-100.00,West,262,4.0,10.0,72,0.00,,,0.01,680.000000,,2013-06-29 19:22:00,
2013-06-29 12:33:00,72.0,61.0,-100.00,West,264,5.0,9.0,69,0.00,,,0.01,761.000000,,2013-06-29 19:33:00,
2013-06-29 12:54:00,72.0,61.0,-100.00,West,264,5.0,9.0,69,0.00,,,0.01,761.000000,,2013-06-29 19:54:00,
2013-06-29 13:01:00,72.0,61.0,-100.00,West,264,5.0,9.0,69,0.00,,,0.01,761.000000,,2013-06-29 20:01:00,
2013-06-29 13:11:00,72.0,61.0,-100.00,West,264,5.0,9.0,69,0.00,,,0.01,761.000000,,2013-06-29 20:11:00,
2013-06-29 13:23:00,72.0,61.0,-100.00,West,264,5.0,9.0,69,0.00,,,0.01,761.000000,,2013-06-29 20:23:00,
2013-06-29 13:52:00,75.0,59.0,-100.00,West,269,5.0,11.0,57,0.00,,,0.01,882.000000,,2013-06-29 20:52:00,
2013-06-29 14:01:00,75.0,59.0,-100.00,West,269,5.0,11.0,57,0.00,,,0.01,882.000000,,2013-06-29 21:01:00,
2013-06-29 14:11:00,75.0,59.0,-100.00,West,269,5.0,11.0,57,0.00,,,0.01,882.000000,,2013-06-29 21:11:00,
2013-06-29 14:22:00,75.0,59.0,-100.00,West,269,5.0,11.0,57,0.00,,,0.01,882.000000,,2013-06-29 21:22:00,
2013-06-29 14:32:00,75.0,59.0,-100.00,West,269,5.0,11.0,57,0.00,,,0.01,882.000000,,2013-06-29 21:32:00,
2013-06-29 14:33:00,76.0,56.0,-100.00,West,269,5.0,10.0,50,0.00,,,0.01,876.000000,,2013-06-29 21:33:00,
2013-06-29 16:33:00,75.0,56.0,-100.00,West,259,3.0,11.0,51,-99.99,,,0.01,732.000000,,2013-06-29 23:33:00,
2013-06-29 17:02:00,75.0,56.0,-100.00,West,259,3.0,11.0,51,-99.99,,,0.01,732.000000,,2013-06-30 00:02:00,
2013-06-29 17:11:00,75.0,56.0,-100.00,West,259,3.0,11.0,51,-99.99,,,0.01,732.000000,,2013-06-30 00:11:00,
2013-06-29 17:22:00,75.0,56.0,-100.00,West,259,3.0,11.0,51,-99.99,,,0.01,732.000000,,2013-06-30 00:22:00,
2013-06-29 17:52:00,75.0,55.0,-100.00,West,259,3.0,8.0,50,0.00,,,-99.99,571.000000,,2013-06-30 00:52:00,
2013-06-29 20:33:00,68.0,55.0,-100.00,West,264,2.0,5.0,64,-99.99,,,0.01,33.000000,,2013-06-30 03:33:00,
2013-06-29 21:01:00,68.0,55.0,-100.00,West,264,2.0,5.0,64,-99.99,,,0.01,33.000000,,2013-06-30 04:01:00,
2013-06-29 21:12:00,68.0,55.0,-100.00,West,264,2.0,5.0,64,-99.99,,,0.01,33.000000,,2013-06-30 04:12:00,
2013-06-29 21:22:00,68.0,55.0,-100.00,West,264,2.0,5.0,64,-99.99,,,0.01,33.000000,,2013-06-30 04:22:00,
2013-06-29 21:33:00,63.0,57.0,-100.00,SSW,194,0.0,4.0,82,0.00,,,0.01,10.000000,,2013-06-30 04:33:00,
2013-06-29 21:53:00,63.0,57.0,-100.00,SSW,194,0.0,4.0,82,0.00,,,0.01,10.000000,,2013-06-30 04:53:00,
2013-06-29 22:02:00,63.0,57.0,-100.00,SSW,194,0.0,4.0,82,0.00,,,0.01,10.000000,,2013-06-30 05:02:00,
2013-06-29 22:12:00,63.0,57.0,-100.00,SSW,194,0.0,4.0,82,0.00,,,0.01,10.000000,,2013-06-30 05:12:00,
2013-06-29 22:22:00,63.0,57.0,-100.00,SSW,194,0.0,4.0,82,0.00,,,0.01,10.000000,,2013-06-30 05:22:00,
2013-06-29 22:33:00,61.0,58.0,-100.00,SW,230,0.0,2.0,89,0.00,,,0.01,0.000000,,2013-06-30 05:33:00,
2013-06-29 23:02:00,61.0,58.0,-100.00,SW,230,0.0,2.0,89,0.00,,,0.01,0.000000,,2013-06-30 06:02:00,
2013-06-29 23:12:00,61.0,58.0,-100.00,SW,230,0.0,2.0,89,0.00,,,0.01,0.000000,,2013-06-30 06:12:00,
2013-06-29 23:23:00,61.0,58.0,-100.00,SW,230,0.0,2.0,89,0.00,,,0.01,0.000000,,2013-06-30 06:23:00,
2013-06-29 23:33:00,59.0,57.0,-100.00,West,262,0.0,3.0,92,0.00,,,0.01,0.000000,,2013-06-30 06:33:00,
2013-06-29 23:53:00,59.0,57.0,-100.00,West,262,0.0,3.0,92,0.00,,,0.01,0.000000,,2013-06-30 06:53:00,